createdAt,value
2019-05-06T00:00:51.980Z,53.70
2019-05-06T00:01:38.943Z,52.80
2019-05-06T00:02:38.943Z,54.00
2019-05-06T00:03:38.927Z,54.10
2019-05-06T00:04:39.368Z,53.70
2019-05-06T00:05:38.905Z,54.60
2019-05-06T00:06:38.898Z,53.10
2019-05-06T00:07:38.883Z,54.50
2019-05-06T00:08:38.901Z,53.30
2019-05-06T00:09:38.880Z,53.50
2019-05-06T00:10:39.222Z,53.40
2019-05-06T00:11:38.873Z,54.50
2019-05-06T00:12:38.871Z,52.90
2019-05-06T00:13:38.847Z,51.70
2019-05-06T00:14:38.903Z,52.30
2019-05-06T00:15:38.837Z,50.90
2019-05-06T00:16:39.274Z,52.70
2019-05-06T00:17:38.867Z,52.00
2019-05-06T00:18:38.819Z,52.10
2019-05-06T00:19:38.839Z,51.90
2019-05-06T00:20:38.832Z,50.50
2019-05-06T00:21:38.790Z,52.70
2019-05-06T00:22:39.067Z,52.10
2019-05-06T00:23:38.798Z,52.00
2019-05-06T00:24:38.774Z,50.60
2019-05-06T00:25:38.787Z,49.10
2019-05-06T00:26:38.767Z,49.70
2019-05-06T00:27:38.751Z,51.00
2019-05-06T00:28:39.150Z,49.30
2019-05-06T00:29:38.755Z,50.90
2019-05-06T00:30:38.738Z,51.10
2019-05-06T00:31:38.742Z,50.00
2019-05-06T00:32:38.751Z,50.50
2019-05-06T00:33:38.752Z,50.60
2019-05-06T00:34:39.156Z,50.30
2019-05-06T00:35:38.749Z,50.80
2019-05-06T00:36:38.710Z,51.10
2019-05-06T00:37:38.707Z,51.60
2019-05-06T00:38:38.713Z,51.20
2019-05-06T00:39:38.723Z,50.70
2019-05-06T00:40:39.038Z,51.00
2019-05-06T00:41:38.671Z,49.60
2019-05-06T00:42:38.670Z,49.90
2019-05-06T00:43:38.676Z,50.60
2019-05-06T00:44:38.649Z,50.10
2019-05-06T00:45:38.674Z,51.70
2019-05-06T00:46:39.006Z,51.70
2019-05-06T00:47:38.634Z,51.10
2019-05-06T00:48:38.639Z,50.20
2019-05-06T00:49:38.637Z,50.30
2019-05-06T00:50:38.635Z,51.20
2019-05-06T00:51:38.619Z,52.00
2019-05-06T00:52:38.949Z,51.90
2019-05-06T00:53:38.604Z,49.80
2019-05-06T00:54:38.584Z,51.70
2019-05-06T00:55:38.594Z,50.30
2019-05-06T00:56:38.595Z,49.60
2019-05-06T00:57:38.619Z,51.10
2019-05-06T00:58:38.821Z,51.20
2019-05-06T00:59:38.579Z,50.80
2019-05-06T01:00:38.591Z,50.20
2019-05-06T01:01:38.537Z,50.90
2019-05-06T01:02:38.549Z,51.60
2019-05-06T01:03:39.000Z,51.70
2019-05-06T01:04:38.548Z,52.20
2019-05-06T01:05:38.516Z,50.70
2019-05-06T01:06:38.536Z,51.10
2019-05-06T01:07:38.524Z,53.50
2019-05-06T01:08:38.568Z,57.00
2019-05-06T01:09:38.858Z,56.30
2019-05-06T01:10:38.504Z,57.10
2019-05-06T01:11:38.496Z,56.60
2019-05-06T01:12:38.465Z,56.40
2019-05-06T01:13:38.489Z,56.70
2019-05-06T01:14:38.729Z,55.10
2019-05-06T01:15:38.464Z,54.80
2019-05-06T01:16:38.442Z,55.80
2019-05-06T01:17:38.460Z,55.70
2019-05-06T01:18:38.436Z,55.90
2019-05-06T01:19:38.934Z,54.80
2019-05-06T01:20:38.453Z,54.60
2019-05-06T01:21:38.454Z,55.20
2019-05-06T01:22:38.413Z,56.20
2019-05-06T01:23:38.432Z,56.10
2019-05-06T01:24:38.768Z,55.60
2019-05-06T01:25:38.403Z,57.30
2019-05-06T01:26:38.394Z,54.70
2019-05-06T01:27:38.398Z,55.20
2019-05-06T01:28:38.386Z,54.20
2019-05-06T01:29:38.667Z,52.30
2019-05-06T01:30:38.373Z,50.20
2019-05-06T01:31:42.709Z,50.20
2019-05-06T01:32:38.378Z,50.30
2019-05-06T01:33:38.367Z,49.60
2019-05-06T01:34:38.705Z,50.60
2019-05-06T01:35:38.329Z,50.60
2019-05-06T01:36:38.373Z,49.60
2019-05-06T01:37:38.333Z,49.00
2019-05-06T01:38:38.348Z,48.20
2019-05-06T01:39:38.298Z,48.20
2019-05-06T01:40:38.570Z,47.30
2019-05-06T01:41:38.344Z,47.80
2019-05-06T01:42:38.367Z,47.30
2019-05-06T01:43:38.295Z,50.40
2019-05-06T01:44:38.293Z,47.40
2019-05-06T01:45:38.289Z,46.90
2019-05-06T01:46:38.592Z,47.80
2019-05-06T01:47:38.280Z,48.00
2019-05-06T01:48:38.242Z,48.50
2019-05-06T01:49:38.261Z,47.20
2019-05-06T01:50:38.309Z,47.10
2019-05-06T01:51:38.242Z,49.80
2019-05-06T01:52:38.595Z,48.40
2019-05-06T01:53:38.216Z,48.20
2019-05-06T01:54:38.216Z,48.80
2019-05-06T01:55:38.216Z,47.20
2019-05-06T01:56:38.216Z,47.30
2019-05-06T01:57:38.208Z,47.80
2019-05-06T01:58:38.546Z,45.90
2019-05-06T01:59:38.207Z,46.30
2019-05-06T02:00:39.570Z,45.70
2019-05-06T02:01:38.187Z,45.70
2019-05-06T02:02:38.171Z,47.30
2019-05-06T02:03:38.186Z,47.60
2019-05-06T02:04:38.415Z,47.80
2019-05-06T02:05:38.161Z,48.10
2019-05-06T02:06:38.176Z,48.90
2019-05-06T02:07:38.151Z,49.10
2019-05-06T02:08:38.188Z,47.20
2019-05-06T02:09:38.136Z,48.00
2019-05-06T02:10:38.367Z,46.90
2019-05-06T02:11:38.121Z,48.40
2019-05-06T02:12:38.103Z,47.70
2019-05-06T02:13:38.119Z,47.50
2019-05-06T02:14:38.105Z,46.80
2019-05-06T02:15:38.095Z,47.50
2019-05-06T02:16:38.536Z,47.70
2019-05-06T02:17:38.089Z,48.00
2019-05-06T02:18:38.067Z,45.70
2019-05-06T02:19:38.056Z,45.50
2019-05-06T02:20:38.066Z,45.50
2019-05-06T02:21:38.035Z,46.30
2019-05-06T02:22:38.441Z,46.30
2019-05-06T02:23:38.102Z,46.90
2019-05-06T02:24:38.020Z,45.10
2019-05-06T02:25:38.022Z,46.40
2019-05-06T02:26:38.019Z,45.90
2019-05-06T02:27:37.997Z,45.90
2019-05-06T02:28:38.305Z,46.10
2019-05-06T02:29:38.004Z,45.50
2019-05-06T02:30:38.010Z,45.10
2019-05-06T02:31:38.026Z,46.70
2019-05-06T02:32:37.975Z,46.50
2019-05-06T02:33:38.008Z,46.40
2019-05-06T02:34:38.289Z,47.80
2019-05-06T02:35:37.955Z,45.40
2019-05-06T02:36:37.969Z,46.20
2019-05-06T02:37:37.949Z,45.80
2019-05-06T02:38:46.486Z,44.90
2019-05-06T02:39:37.982Z,47.00
2019-05-06T02:40:38.312Z,43.70
2019-05-06T02:41:37.899Z,44.20
2019-05-06T02:42:37.918Z,45.50
2019-05-06T02:43:37.921Z,45.40
2019-05-06T02:44:37.898Z,45.20
2019-05-06T02:45:37.880Z,45.10
2019-05-06T02:46:38.233Z,46.00
2019-05-06T02:47:37.887Z,45.50
2019-05-06T02:48:37.874Z,46.50
2019-05-06T02:49:37.866Z,44.90
2019-05-06T02:50:37.856Z,45.10
2019-05-06T02:51:38.360Z,48.70
2019-05-06T02:52:37.826Z,54.40
2019-05-06T02:53:37.837Z,53.90
2019-05-06T02:54:37.832Z,53.30
2019-05-06T02:55:37.850Z,56.90
2019-05-06T02:56:37.854Z,56.00
2019-05-06T02:57:38.316Z,58.10
2019-05-06T02:58:37.799Z,58.20
2019-05-06T02:59:37.816Z,58.50
2019-05-06T03:00:37.842Z,56.70
2019-05-06T03:01:37.803Z,54.20
2019-05-06T03:02:43.400Z,53.60
2019-05-06T03:03:37.776Z,51.80
2019-05-06T03:04:37.767Z,50.70
2019-05-06T03:05:37.770Z,50.50
2019-05-06T03:06:37.762Z,50.60
2019-05-06T03:07:38.103Z,51.80
2019-05-06T03:08:37.760Z,51.00
2019-05-06T03:09:37.721Z,52.50
2019-05-06T03:10:37.744Z,50.60
2019-05-06T03:11:37.757Z,51.40
2019-05-06T03:12:38.039Z,51.10
2019-05-06T03:13:37.756Z,51.50
2019-05-06T03:14:37.708Z,51.50
2019-05-06T03:15:37.713Z,54.40
2019-05-06T03:16:37.685Z,53.20
2019-05-06T03:17:38.046Z,52.60
2019-05-06T03:18:37.686Z,53.60
2019-05-06T03:19:37.681Z,53.80
2019-05-06T03:20:37.687Z,54.00
2019-05-06T03:21:37.663Z,53.60
2019-05-06T03:22:37.952Z,53.60
2019-05-06T03:23:37.633Z,53.20
2019-05-06T03:24:37.633Z,53.00
2019-05-06T03:25:37.639Z,55.60
2019-05-06T03:26:37.639Z,53.60
2019-05-06T03:27:38.030Z,55.90
2019-05-06T03:28:37.636Z,53.70
2019-05-06T03:29:37.622Z,54.20
2019-05-06T03:30:37.638Z,52.70
2019-05-06T03:31:37.596Z,54.00
2019-05-06T03:33:14.288Z,53.60
2019-05-06T03:33:55.390Z,54.50
2019-05-06T03:34:58.742Z,56.00
2019-05-06T03:35:52.230Z,54.00
2019-05-06T03:36:41.232Z,55.80
2019-05-06T03:37:37.901Z,55.90
2019-05-06T03:38:37.555Z,54.80
2019-05-06T03:39:37.542Z,56.30
2019-05-06T03:40:41.792Z,54.60
2019-05-06T03:41:37.514Z,54.90
2019-05-06T03:42:37.895Z,57.70
2019-05-06T03:43:37.502Z,55.70
2019-05-06T03:44:37.499Z,54.90
2019-05-06T03:45:37.497Z,54.20
2019-05-06T03:46:37.537Z,53.60
2019-05-06T03:47:37.836Z,55.00
2019-05-06T03:48:37.484Z,56.40
2019-05-06T03:49:37.462Z,56.40
2019-05-06T03:50:37.470Z,55.80
2019-05-06T03:51:37.459Z,55.10
2019-05-06T03:52:37.656Z,55.90
2019-05-06T03:53:37.424Z,55.60
2019-05-06T03:54:37.421Z,53.50
2019-05-06T03:55:37.433Z,57.10
2019-05-06T03:56:37.416Z,55.10
2019-05-06T03:57:37.769Z,55.90
2019-05-06T03:58:37.425Z,57.30
2019-05-06T03:59:37.397Z,55.80
2019-05-06T04:00:37.387Z,55.60
2019-05-06T04:01:37.377Z,54.20
2019-05-06T04:02:39.564Z,56.70
2019-05-06T04:03:47.205Z,56.00
2019-05-06T04:04:37.342Z,56.30
2019-05-06T04:05:37.357Z,54.90
2019-05-06T04:06:37.353Z,55.10
2019-05-06T04:07:37.347Z,56.10
2019-05-06T04:08:37.342Z,59.60
2019-05-06T04:09:37.988Z,60.50
2019-05-06T04:10:37.364Z,59.20
2019-05-06T04:11:37.299Z,58.60
2019-05-06T04:12:37.317Z,58.90
2019-05-06T04:13:37.300Z,58.70
2019-05-06T04:14:37.301Z,58.90
2019-05-06T04:15:37.823Z,58.60
2019-05-06T04:16:37.283Z,58.80
2019-05-06T04:17:37.254Z,59.60
2019-05-06T04:18:37.260Z,59.80
2019-05-06T04:19:37.254Z,58.90
2019-05-06T04:20:37.246Z,61.00
2019-05-06T04:21:37.876Z,59.20
2019-05-06T04:22:37.251Z,60.40
2019-05-06T04:23:37.240Z,59.90
2019-05-06T04:24:37.225Z,61.30
2019-05-06T04:25:37.218Z,59.30
2019-05-06T04:26:37.203Z,61.10
2019-05-06T04:27:38.674Z,60.00
2019-05-06T04:28:37.202Z,59.80
2019-05-06T04:29:37.187Z,59.20
2019-05-06T04:30:37.181Z,60.60
2019-05-06T04:31:37.172Z,58.60
2019-05-06T04:32:37.171Z,61.10
2019-05-06T04:33:37.714Z,59.20
2019-05-06T04:34:37.166Z,59.60
2019-05-06T04:35:37.155Z,60.60
2019-05-06T04:36:37.180Z,58.60
2019-05-06T04:37:37.133Z,59.40
2019-05-06T04:38:37.101Z,59.30
2019-05-06T04:39:37.726Z,61.20
2019-05-06T04:40:37.103Z,58.30
2019-05-06T04:41:37.150Z,61.50
2019-05-06T04:42:37.097Z,60.30
2019-05-06T04:43:37.087Z,58.20
2019-05-06T04:44:37.081Z,58.60
2019-05-06T04:45:37.641Z,60.30
2019-05-06T04:46:37.165Z,61.20
2019-05-06T04:47:37.066Z,61.20
2019-05-06T04:48:37.103Z,62.10
2019-05-06T04:49:37.067Z,61.70
2019-05-06T04:50:37.039Z,61.60
2019-05-06T04:51:37.640Z,60.50
2019-05-06T04:52:37.015Z,60.50
2019-05-06T04:53:37.009Z,59.80
2019-05-06T04:54:37.004Z,58.30
2019-05-06T04:55:37.001Z,59.20
2019-05-06T04:56:37.006Z,60.70
2019-05-06T04:57:39.300Z,60.80
2019-05-06T04:58:36.964Z,61.30
2019-05-06T04:59:36.989Z,60.80
2019-05-06T05:00:36.975Z,60.20
2019-05-06T05:01:36.968Z,58.40
2019-05-06T05:02:37.004Z,60.50
2019-05-06T05:03:37.340Z,61.90
2019-05-06T05:04:37.174Z,61.50
2019-05-06T05:05:36.972Z,62.40
2019-05-06T05:06:36.931Z,61.50
2019-05-06T05:07:36.910Z,62.80
2019-05-06T05:08:37.221Z,64.20
2019-05-06T05:09:36.918Z,61.20
2019-05-06T05:10:36.882Z,61.30
2019-05-06T05:11:36.886Z,61.60
2019-05-06T05:12:36.865Z,62.20
2019-05-06T05:13:37.222Z,60.80
2019-05-06T05:14:36.908Z,61.30
2019-05-06T05:15:36.871Z,62.90
2019-05-06T05:16:36.897Z,64.70
2019-05-06T05:17:36.845Z,64.50
2019-05-06T05:18:37.057Z,65.00
2019-05-06T05:19:36.838Z,63.80
2019-05-06T05:20:40.759Z,64.30
2019-05-06T05:21:36.831Z,62.90
2019-05-06T05:22:36.825Z,62.60
2019-05-06T05:23:37.260Z,63.60
2019-05-06T05:24:36.805Z,61.80
2019-05-06T05:25:36.773Z,64.20
2019-05-06T05:26:36.781Z,61.10
2019-05-06T05:27:36.768Z,59.70
2019-05-06T05:28:37.108Z,60.30
2019-05-06T05:29:36.804Z,59.10
2019-05-06T05:30:36.743Z,61.70
2019-05-06T05:31:36.751Z,59.90
2019-05-06T05:32:36.720Z,58.40
2019-05-06T05:33:37.044Z,61.20
2019-05-06T05:34:40.395Z,60.50
2019-05-06T05:35:36.733Z,59.10
2019-05-06T05:36:36.727Z,59.50
2019-05-06T05:37:36.716Z,59.50
2019-05-06T05:38:37.049Z,59.10
2019-05-06T05:39:36.679Z,57.50
2019-05-06T05:40:36.718Z,61.80
2019-05-06T05:41:36.672Z,60.20
2019-05-06T05:42:36.673Z,62.70
2019-05-06T05:43:39.378Z,61.90
2019-05-06T05:44:36.676Z,64.30
2019-05-06T05:45:36.664Z,63.50
2019-05-06T05:46:36.651Z,62.70
2019-05-06T05:47:36.656Z,62.50
2019-05-06T05:48:36.921Z,62.30
2019-05-06T05:49:36.611Z,60.90
2019-05-06T05:50:36.603Z,62.10
2019-05-06T05:51:36.618Z,63.00
2019-05-06T05:52:36.587Z,61.90
2019-05-06T05:53:36.844Z,61.70
2019-05-06T05:54:36.569Z,61.70
2019-05-06T05:55:36.570Z,60.60
2019-05-06T05:56:36.570Z,60.90
2019-05-06T05:57:36.554Z,61.10
2019-05-06T05:58:36.549Z,63.30
2019-05-06T05:59:36.843Z,63.70
2019-05-06T06:00:36.567Z,63.20
2019-05-06T06:01:36.542Z,63.40
2019-05-06T06:02:36.515Z,64.00
2019-05-06T06:03:36.519Z,63.70
2019-05-06T06:04:36.912Z,62.80
2019-05-06T06:05:36.494Z,65.00
2019-05-06T06:06:36.514Z,63.70
2019-05-06T06:07:36.479Z,62.80
2019-05-06T06:08:37.023Z,64.40
2019-05-06T06:09:36.458Z,62.80
2019-05-06T06:10:36.825Z,60.40
2019-05-06T06:11:36.473Z,57.70
2019-05-06T06:12:36.462Z,59.30
2019-05-06T06:13:36.440Z,56.90
2019-05-06T06:14:36.412Z,58.70
2019-05-06T06:15:36.415Z,61.50
2019-05-06T06:16:36.733Z,57.60
2019-05-06T06:17:36.398Z,58.70
2019-05-06T06:18:36.423Z,56.20
2019-05-06T06:19:36.446Z,55.30
2019-05-06T06:20:36.400Z,57.50
2019-05-06T06:21:36.439Z,57.10
2019-05-06T06:22:37.125Z,55.80
2019-05-06T06:23:36.353Z,56.70
2019-05-06T06:24:36.357Z,55.90
2019-05-06T06:25:36.351Z,56.60
2019-05-06T06:26:36.328Z,56.10
2019-05-06T06:27:36.382Z,56.90
2019-05-06T06:28:36.716Z,55.20
2019-05-06T06:29:36.346Z,52.20
2019-05-06T06:30:36.323Z,53.90
2019-05-06T06:31:36.311Z,52.20
2019-05-06T06:32:36.309Z,52.20
2019-05-06T06:33:36.309Z,51.80
2019-05-06T06:34:36.583Z,51.00
2019-05-06T06:35:36.291Z,50.70
2019-05-06T06:36:36.284Z,50.90
2019-05-06T06:37:36.280Z,52.30
2019-05-06T06:38:36.266Z,50.50
2019-05-06T06:39:36.236Z,52.30
2019-05-06T06:40:36.640Z,53.20
2019-05-06T06:41:36.223Z,53.80
2019-05-06T06:42:36.241Z,54.40
2019-05-06T06:43:36.230Z,54.00
2019-05-06T06:44:36.225Z,53.50
2019-05-06T06:45:36.187Z,54.10
2019-05-06T06:46:36.647Z,54.90
2019-05-06T06:47:36.193Z,52.80
2019-05-06T06:48:36.178Z,53.40
2019-05-06T06:49:36.190Z,52.80
2019-05-06T06:50:36.170Z,53.00
2019-05-06T06:51:36.150Z,52.40
2019-05-06T06:52:36.646Z,51.60
2019-05-06T06:53:36.134Z,52.70
2019-05-06T06:54:36.134Z,51.10
2019-05-06T06:55:36.116Z,50.10
2019-05-06T06:56:36.125Z,51.30
2019-05-06T06:57:36.126Z,52.10
2019-05-06T06:58:36.456Z,50.80
2019-05-06T06:59:36.119Z,51.00
2019-05-06T07:00:36.075Z,52.20
2019-05-06T07:01:36.103Z,51.60
2019-05-06T07:02:36.079Z,50.50
2019-05-06T07:03:36.061Z,51.00
2019-05-06T07:04:36.427Z,48.60
2019-05-06T07:05:36.089Z,51.10
2019-05-06T07:06:36.042Z,51.90
2019-05-06T07:07:43.709Z,51.80
2019-05-06T07:08:37.648Z,50.60
2019-05-06T07:09:36.405Z,50.60
2019-05-06T07:10:36.030Z,51.10
2019-05-06T07:11:36.011Z,49.30
2019-05-06T07:12:36.018Z,49.30
2019-05-06T07:13:35.997Z,51.60
2019-05-06T07:14:36.444Z,49.40
2019-05-06T07:15:35.960Z,48.10
2019-05-06T07:16:35.981Z,47.30
2019-05-06T07:17:35.966Z,46.30
2019-05-06T07:18:35.958Z,47.20
2019-05-06T07:19:35.946Z,47.00
2019-05-06T07:20:36.275Z,46.20
2019-05-06T07:21:36.163Z,47.20
2019-05-06T07:22:35.949Z,49.00
2019-05-06T07:23:35.907Z,46.30
2019-05-06T07:24:35.932Z,46.40
2019-05-06T07:25:36.354Z,46.10
2019-05-06T07:26:35.902Z,47.60
2019-05-06T07:27:35.888Z,45.40
2019-05-06T07:28:35.887Z,44.30
2019-05-06T07:29:35.884Z,46.30
2019-05-06T07:30:36.330Z,46.60
2019-05-06T07:31:35.875Z,45.60
2019-05-06T07:32:35.891Z,46.10
2019-05-06T07:33:35.861Z,46.10
2019-05-06T07:34:35.830Z,45.20
2019-05-06T07:35:40.469Z,44.30
2019-05-06T07:36:35.829Z,45.30
2019-05-06T07:37:35.796Z,42.90
2019-05-06T07:38:35.844Z,42.70
2019-05-06T07:39:35.814Z,42.90
2019-05-06T07:40:35.810Z,41.70
2019-05-06T07:41:36.452Z,41.80
2019-05-06T07:42:35.778Z,41.70
2019-05-06T07:43:35.755Z,40.90
2019-05-06T07:44:35.780Z,42.00
2019-05-06T07:45:35.822Z,42.70
2019-05-06T07:46:35.737Z,42.50
2019-05-06T07:47:36.233Z,42.00
2019-05-06T07:48:35.723Z,42.90
2019-05-06T07:49:35.721Z,42.30
2019-05-06T07:50:35.717Z,42.30
2019-05-06T07:51:35.718Z,42.40
2019-05-06T07:52:35.694Z,42.20
2019-05-06T07:53:36.113Z,40.80
2019-05-06T07:54:35.730Z,40.10
2019-05-06T07:55:35.676Z,41.60
2019-05-06T07:56:35.679Z,41.50
2019-05-06T07:57:35.670Z,42.10
2019-05-06T07:58:36.182Z,41.90
2019-05-06T07:59:35.669Z,41.50
2019-05-06T08:00:35.631Z,41.50
2019-05-06T08:01:35.623Z,42.30
2019-05-06T08:02:35.641Z,43.10
2019-05-06T08:03:35.603Z,42.80
2019-05-06T08:04:35.974Z,40.80
2019-05-06T08:05:35.623Z,43.20
2019-05-06T08:06:35.583Z,42.10
2019-05-06T08:07:35.603Z,42.00
2019-05-06T08:08:35.577Z,42.70
2019-05-06T08:09:35.821Z,42.60
2019-05-06T08:10:35.554Z,42.30
2019-05-06T08:11:35.556Z,41.80
2019-05-06T08:12:35.557Z,42.50
2019-05-06T08:13:35.543Z,44.00
2019-05-06T08:14:35.538Z,42.40
2019-05-06T08:15:35.821Z,43.70
2019-05-06T08:16:35.521Z,44.50
2019-05-06T08:17:35.526Z,44.50
2019-05-06T08:18:35.502Z,43.50
2019-05-06T08:19:35.507Z,44.00
2019-05-06T08:20:35.493Z,44.30
2019-05-06T08:21:35.897Z,42.70
2019-05-06T08:22:35.462Z,43.00
2019-05-06T08:23:35.460Z,42.70
2019-05-06T08:24:35.462Z,43.70
2019-05-06T08:25:35.433Z,43.40
2019-05-06T08:26:35.449Z,42.20
2019-05-06T08:27:35.688Z,42.60
2019-05-06T08:28:40.685Z,41.90
2019-05-06T08:29:35.411Z,40.90
2019-05-06T08:30:35.544Z,42.50
2019-05-06T08:31:35.405Z,40.40
2019-05-06T08:32:35.422Z,43.00
2019-05-06T08:33:35.731Z,41.60
2019-05-06T08:34:35.358Z,41.20
2019-05-06T08:35:35.366Z,42.90
2019-05-06T08:36:35.356Z,42.60
2019-05-06T08:37:35.361Z,42.70
2019-05-06T08:38:35.346Z,41.70
2019-05-06T08:39:35.607Z,41.60
2019-05-06T08:40:35.312Z,41.20
2019-05-06T08:41:35.313Z,41.20
2019-05-06T08:42:35.327Z,39.90
2019-05-06T08:43:35.292Z,41.30
2019-05-06T08:44:35.302Z,40.60
2019-05-06T08:45:35.602Z,40.50
2019-05-06T08:46:35.297Z,38.70
2019-05-06T08:47:35.287Z,41.00
2019-05-06T08:48:35.253Z,41.40
2019-05-06T08:49:35.245Z,39.20
2019-05-06T08:50:35.243Z,39.50
2019-05-06T08:51:35.639Z,38.90
2019-05-06T08:52:35.239Z,39.50
2019-05-06T08:53:35.236Z,40.40
2019-05-06T08:54:35.223Z,40.50
2019-05-06T08:55:35.218Z,40.00
2019-05-06T08:56:35.199Z,41.70
2019-05-06T08:57:35.595Z,38.60
2019-05-06T08:58:35.182Z,39.40
2019-05-06T08:59:35.181Z,39.80
2019-05-06T09:00:35.184Z,39.20
2019-05-06T09:01:35.178Z,40.80
2019-05-06T09:02:35.145Z,40.80
2019-05-06T09:03:35.463Z,40.60
2019-05-06T09:04:35.153Z,40.00
2019-05-06T09:05:35.137Z,39.60
2019-05-06T09:06:35.175Z,37.30
2019-05-06T09:07:35.109Z,34.70
2019-05-06T09:08:35.523Z,34.80
2019-05-06T09:09:35.110Z,35.50
2019-05-06T09:10:35.102Z,34.80
2019-05-06T09:11:35.098Z,35.10
2019-05-06T09:12:35.081Z,36.90
2019-05-06T09:13:35.073Z,37.40
2019-05-06T09:14:35.310Z,38.10
2019-05-06T09:15:35.051Z,37.70
2019-05-06T09:16:35.046Z,37.70
2019-05-06T09:17:35.030Z,38.00
2019-05-06T09:18:35.032Z,37.30
2019-05-06T09:19:35.319Z,37.90
2019-05-06T09:20:35.005Z,36.30
2019-05-06T09:21:34.996Z,37.70
2019-05-06T09:22:34.991Z,37.20
2019-05-06T09:23:35.002Z,35.30
2019-05-06T09:24:35.454Z,36.60
2019-05-06T09:25:34.985Z,37.40
2019-05-06T09:26:34.979Z,36.20
2019-05-06T09:27:34.974Z,35.70
2019-05-06T09:28:34.956Z,36.80
2019-05-06T09:29:34.954Z,36.90
2019-05-06T09:30:35.390Z,36.10
2019-05-06T09:31:34.938Z,37.10
2019-05-06T09:32:36.022Z,36.30
2019-05-06T09:33:34.916Z,35.20
2019-05-06T09:34:34.938Z,34.70
2019-05-06T09:35:34.911Z,33.90
2019-05-06T09:36:44.245Z,34.60
2019-05-06T09:37:34.929Z,34.30
2019-05-06T09:38:34.863Z,34.80
2019-05-06T09:39:34.856Z,33.90
2019-05-06T09:40:34.885Z,34.10
2019-05-06T09:41:34.863Z,33.40
2019-05-06T09:42:35.150Z,33.50
2019-05-06T09:43:34.832Z,32.00
2019-05-06T09:44:34.836Z,31.20
2019-05-06T09:45:34.840Z,30.80
2019-05-06T09:46:34.809Z,30.40
2019-05-06T09:47:35.164Z,32.00
2019-05-06T09:48:34.802Z,32.20
2019-05-06T09:49:34.809Z,30.80
2019-05-06T09:50:34.809Z,30.70
2019-05-06T09:51:34.755Z,30.50
2019-05-06T09:52:34.769Z,28.80
2019-05-06T09:53:35.000Z,29.00
2019-05-06T09:54:34.773Z,29.80
2019-05-06T09:55:34.755Z,27.70
2019-05-06T09:56:34.723Z,28.80
2019-05-06T09:57:34.736Z,27.20
2019-05-06T09:58:35.259Z,27.70
2019-05-06T09:59:34.757Z,26.60
2019-05-06T10:00:34.715Z,26.00
2019-05-06T10:01:34.680Z,27.20
2019-05-06T10:02:34.690Z,28.50
2019-05-06T10:03:34.671Z,27.90
2019-05-06T10:04:34.924Z,27.70
2019-05-06T10:05:34.672Z,28.10
2019-05-06T10:06:34.655Z,28.30
2019-05-06T10:07:34.650Z,28.80
2019-05-06T10:08:34.648Z,26.60
2019-05-06T10:09:34.905Z,27.00
2019-05-06T10:10:34.619Z,27.10
2019-05-06T10:11:34.608Z,27.00
2019-05-06T10:12:34.610Z,27.20
2019-05-06T10:13:34.605Z,25.90
2019-05-06T10:14:35.043Z,27.70
2019-05-06T10:15:34.575Z,26.40
2019-05-06T10:16:34.621Z,25.50
2019-05-06T10:17:34.587Z,25.80
2019-05-06T10:18:34.583Z,26.90
2019-05-06T10:19:34.994Z,27.50
2019-05-06T10:20:34.557Z,26.60
2019-05-06T10:21:34.544Z,26.80
2019-05-06T10:22:34.559Z,25.50
2019-05-06T10:23:34.601Z,26.40
2019-05-06T10:24:34.568Z,26.40
2019-05-06T10:25:34.819Z,26.40
2019-05-06T10:26:34.497Z,26.30
2019-05-06T10:27:34.495Z,26.00
2019-05-06T10:28:34.545Z,26.00
2019-05-06T10:29:34.478Z,24.60
2019-05-06T10:30:34.483Z,25.10
2019-05-06T10:31:34.900Z,24.20
2019-05-06T10:32:34.504Z,25.90
2019-05-06T10:33:34.451Z,23.50
2019-05-06T10:34:34.478Z,23.90
2019-05-06T10:35:34.444Z,22.90
2019-05-06T10:36:34.422Z,23.80
2019-05-06T10:37:34.686Z,22.90
2019-05-06T10:38:34.410Z,21.90
2019-05-06T10:39:34.410Z,22.00
2019-05-06T10:40:34.401Z,23.10
2019-05-06T10:41:34.402Z,22.00
2019-05-06T10:42:34.379Z,20.80
2019-05-06T10:43:34.735Z,21.20
2019-05-06T10:44:34.360Z,20.90
2019-05-06T10:45:34.355Z,19.10
2019-05-06T10:46:34.334Z,19.50
2019-05-06T10:47:34.341Z,18.40
2019-05-06T10:48:34.347Z,18.90
2019-05-06T10:49:34.667Z,18.90
2019-05-06T10:50:34.330Z,18.20
2019-05-06T10:51:34.311Z,18.50
2019-05-06T10:52:34.323Z,17.40
2019-05-06T10:53:34.286Z,17.70
2019-05-06T10:54:34.289Z,19.00
2019-05-06T10:55:34.606Z,18.40
2019-05-06T10:56:49.521Z,17.40
2019-05-06T10:57:34.273Z,18.70
2019-05-06T10:58:34.276Z,17.80
2019-05-06T10:59:34.272Z,16.20
2019-05-06T11:00:34.244Z,17.90
2019-05-06T11:01:34.491Z,17.90
2019-05-06T11:02:34.243Z,16.90
2019-05-06T11:03:34.219Z,17.40
2019-05-06T11:04:34.204Z,16.80
2019-05-06T11:05:34.225Z,16.60
2019-05-06T11:06:34.660Z,16.70
2019-05-06T11:07:35.298Z,17.10
2019-05-06T11:08:34.173Z,16.40
2019-05-06T11:09:34.182Z,16.30
2019-05-06T11:10:40.773Z,15.50
2019-05-06T11:11:38.484Z,15.70
2019-05-06T11:12:34.618Z,15.10
2019-05-06T11:13:34.157Z,15.00
2019-05-06T11:14:34.136Z,15.10
2019-05-06T11:15:34.142Z,15.10
2019-05-06T11:16:34.133Z,15.20
2019-05-06T11:17:34.148Z,14.70
2019-05-06T11:18:34.361Z,15.00
2019-05-06T11:19:34.122Z,14.10
2019-05-06T11:20:34.124Z,14.40
2019-05-06T11:21:34.105Z,14.40
2019-05-06T11:22:34.098Z,13.20
2019-05-06T11:23:34.079Z,12.90
2019-05-06T11:24:34.542Z,12.00
2019-05-06T11:25:34.044Z,12.30
2019-05-06T11:26:34.065Z,11.80
2019-05-06T11:27:37.548Z,11.20
2019-05-06T11:28:35.297Z,10.80
2019-05-06T11:29:36.720Z,11.30
2019-05-06T11:30:34.024Z,10.90
2019-05-06T11:31:34.012Z,10.60
2019-05-06T11:32:34.011Z,11.10
2019-05-06T11:33:34.007Z,9.90
2019-05-06T11:34:34.005Z,10.10
2019-05-06T11:35:34.395Z,10.30
2019-05-06T11:36:33.995Z,9.90
2019-05-06T11:37:45.807Z,9.80
2019-05-06T11:38:33.996Z,9.60
2019-05-06T11:39:33.959Z,10.10
2019-05-06T11:40:33.983Z,8.60
2019-05-06T11:41:34.006Z,8.60
2019-05-06T11:42:35.916Z,8.40
2019-05-06T11:43:33.935Z,8.30
2019-05-06T11:44:33.963Z,8.50
2019-05-06T11:45:33.916Z,8.60
2019-05-06T11:46:33.962Z,7.80
2019-05-06T11:47:33.936Z,8.60
2019-05-06T11:48:33.915Z,9.10
2019-05-06T11:49:33.936Z,8.10
2019-05-06T11:50:33.925Z,7.70
2019-05-06T11:51:33.913Z,7.90
2019-05-06T11:52:34.596Z,7.60
2019-05-06T11:53:33.891Z,8.10
2019-05-06T11:54:33.922Z,7.80
2019-05-06T11:55:38.641Z,8.00
2019-05-06T11:56:47.583Z,7.40
2019-05-06T11:57:33.879Z,7.60
2019-05-06T11:58:33.882Z,6.70
2019-05-06T11:59:33.847Z,6.40
2019-05-06T12:00:35.908Z,6.90
2019-05-06T12:01:33.845Z,6.70
2019-05-06T12:02:33.896Z,6.60
2019-05-06T12:03:33.829Z,6.30
2019-05-06T12:04:33.862Z,6.30
2019-05-06T12:05:33.842Z,6.10
2019-05-06T12:06:33.852Z,6.20
2019-05-06T12:07:33.836Z,6.10
2019-05-06T12:08:33.835Z,6.30
2019-05-06T12:09:33.824Z,5.80
2019-05-06T12:10:33.796Z,6.00
2019-05-06T12:11:33.794Z,6.00
2019-05-06T12:12:33.787Z,6.00
2019-05-06T12:13:33.886Z,6.40
2019-05-06T12:14:33.778Z,6.00
2019-05-06T12:15:33.836Z,6.90
2019-05-06T12:16:33.809Z,5.60
2019-05-06T12:17:33.785Z,6.40
2019-05-06T12:18:33.762Z,6.60
2019-05-06T12:19:33.757Z,6.70
2019-05-06T12:20:33.748Z,6.70
2019-05-06T12:21:33.810Z,7.00
2019-05-06T12:22:33.747Z,6.50
2019-05-06T12:23:35.389Z,7.30
2019-05-06T12:24:33.764Z,6.90
2019-05-06T12:25:33.753Z,7.00
2019-05-06T12:26:33.749Z,6.40
2019-05-06T12:27:33.728Z,6.40
2019-05-06T12:28:33.734Z,6.70
2019-05-06T12:29:33.711Z,7.50
2019-05-06T12:30:33.721Z,7.00
2019-05-06T12:31:33.707Z,6.40
2019-05-06T12:32:33.715Z,6.10
2019-05-06T12:33:33.705Z,6.90
2019-05-06T12:34:33.743Z,7.20
2019-05-06T12:35:33.717Z,6.70
2019-05-06T12:36:33.686Z,6.70
2019-05-06T12:37:33.684Z,6.80
2019-05-06T12:38:33.693Z,6.70
2019-05-06T12:39:33.695Z,6.60
2019-05-06T12:40:33.703Z,6.20
2019-05-06T12:41:33.689Z,6.20
2019-05-06T12:42:33.717Z,7.20
2019-05-06T12:43:33.665Z,6.70
2019-05-06T12:44:33.717Z,7.00
2019-05-06T12:45:33.669Z,7.20
2019-05-06T12:46:33.656Z,6.70
2019-05-06T12:47:33.664Z,6.40
2019-05-06T12:48:33.694Z,7.10
2019-05-06T12:49:33.641Z,6.70
2019-05-06T12:50:33.640Z,6.70
2019-05-06T12:51:33.624Z,5.70
2019-05-06T12:52:33.641Z,5.60
2019-05-06T12:53:33.623Z,5.10
2019-05-06T12:54:33.749Z,5.10
2019-05-06T12:55:33.834Z,4.40